createdAt,value
2023-08-07T00:00:02.440Z,97434.81
2023-08-07T00:02:31.013Z,97446.53
2023-08-07T00:05:00.493Z,97421.47
2023-08-07T00:07:28.613Z,97445.78
2023-08-07T00:09:56.600Z,97448.75
2023-08-07T00:12:24.989Z,97438.56
2023-08-07T00:14:53.195Z,97437.22
2023-08-07T00:17:21.509Z,97449.78
2023-08-07T00:19:50.056Z,97449.94
2023-08-07T00:22:19.697Z,97451.16
2023-08-07T00:24:48.357Z,97453.84
2023-08-07T00:27:16.571Z,97444.91
2023-08-07T00:29:45.093Z,97457.66
2023-08-07T00:32:13.140Z,97468.59
2023-08-07T00:34:41.391Z,97448.44
2023-08-07T00:37:09.926Z,97460.25
2023-08-07T00:39:39.603Z,97454.31
2023-08-07T00:42:08.690Z,97442.34
2023-08-07T00:44:37.013Z,97461.47
2023-08-07T00:47:05.763Z,97467.66
2023-08-07T00:49:34.624Z,97460.50
2023-08-07T00:52:02.893Z,97459.09
2023-08-07T00:54:34.217Z,97453.38
2023-08-07T00:57:12.929Z,97465.91
2023-08-07T00:59:42.351Z,97465.28
2023-08-07T01:02:11.600Z,97477.31
2023-08-07T01:04:40.356Z,97461.84
2023-08-07T01:07:08.939Z,97456.41
2023-08-07T01:09:36.968Z,97482.47
2023-08-07T01:12:16.968Z,97473.34
2023-08-07T01:14:53.556Z,97468.38
2023-08-07T01:17:24.580Z,97480.94
2023-08-07T01:19:53.736Z,97469.88
2023-08-07T01:22:23.736Z,97478.44
2023-08-07T01:24:52.802Z,97481.16
2023-08-07T01:27:33.680Z,97470.13
2023-08-07T01:30:11.584Z,97471.91
2023-08-07T01:32:49.853Z,97490.91
2023-08-07T01:35:21.091Z,97483.84
2023-08-07T01:37:51.925Z,97487.34
2023-08-07T01:40:21.270Z,97487.19
2023-08-07T01:42:49.964Z,97488.09
2023-08-07T01:45:25.173Z,97489.91
2023-08-07T01:47:53.947Z,97498.41
2023-08-07T01:50:22.508Z,97500.97
2023-08-07T01:52:52.731Z,97500.22
2023-08-07T01:55:22.154Z,97503.22
2023-08-07T01:57:50.402Z,97508.09
2023-08-07T02:00:18.707Z,97508.22
2023-08-07T02:02:48.251Z,97503.94
2023-08-07T02:05:17.719Z,97505.78
2023-08-07T02:07:46.298Z,97506.91
2023-08-07T02:10:15.759Z,97516.44
2023-08-07T02:12:43.798Z,97520.97
2023-08-07T02:15:12.372Z,97514.31
2023-08-07T02:17:42.624Z,97525.81
2023-08-07T02:20:12.643Z,97518.88
2023-08-07T02:22:40.747Z,97509.84
2023-08-07T02:25:09.771Z,97515.97
2023-08-07T02:27:40.932Z,97535.38
2023-08-07T02:30:09.851Z,97515.53
2023-08-07T02:32:38.030Z,97533.31
2023-08-07T02:35:06.975Z,97530.97
2023-08-07T02:37:34.989Z,97538.34
2023-08-07T02:40:03.395Z,97550.28
2023-08-07T02:42:31.332Z,97528.78
2023-08-07T02:45:00.958Z,97529.50
2023-08-07T02:47:29.170Z,97543.03
2023-08-07T02:49:57.159Z,97544.72
2023-08-07T02:52:25.289Z,97544.91
2023-08-07T02:54:53.320Z,97553.41
2023-08-07T02:57:21.827Z,97556.88
2023-08-07T02:59:50.279Z,97532.25
2023-08-07T03:02:19.800Z,97566.22
2023-08-07T03:04:47.901Z,97570.19
2023-08-07T03:07:16.349Z,97575.38
2023-08-07T03:09:49.125Z,97546.03
2023-08-07T03:12:17.508Z,97573.13
2023-08-07T03:14:45.595Z,97580.22
2023-08-07T03:17:14.168Z,97577.63
2023-08-07T03:19:45.491Z,97567.69
2023-08-07T03:22:13.672Z,97576.53
2023-08-07T03:24:41.836Z,97565.09
2023-08-07T03:27:10.274Z,97586.13
2023-08-07T03:29:38.429Z,97584.34
2023-08-07T03:32:06.710Z,97588.69
2023-08-07T03:34:34.874Z,97570.31
2023-08-07T03:37:04.612Z,97593.75
2023-08-07T03:39:32.781Z,97590.38
2023-08-07T03:42:00.796Z,97591.41
2023-08-07T03:44:30.095Z,97584.69
2023-08-07T03:47:00.420Z,97595.59
2023-08-07T03:49:30.028Z,97592.00
2023-08-07T03:52:01.184Z,97608.41
2023-08-07T03:54:30.537Z,97604.78
2023-08-07T03:56:58.570Z,97608.28
2023-08-07T03:59:26.877Z,97627.44
2023-08-07T04:01:55.504Z,97624.78
2023-08-07T04:04:23.933Z,97625.81
2023-08-07T04:06:52.007Z,97616.63
2023-08-07T04:09:20.227Z,97632.63
2023-08-07T04:11:49.691Z,97625.53
2023-08-07T04:14:17.825Z,97639.53
2023-08-07T04:16:47.521Z,97634.00
2023-08-07T04:19:15.566Z,97644.63
2023-08-07T04:21:44.191Z,97638.63
2023-08-07T04:24:12.616Z,97640.69
2023-08-07T04:26:41.097Z,97653.59
2023-08-07T04:29:12.130Z,97655.41
2023-08-07T04:31:40.130Z,97658.63
2023-08-07T04:34:08.374Z,97641.84
2023-08-07T04:36:36.444Z,97655.22
2023-08-07T04:39:04.668Z,97656.31
2023-08-07T04:41:32.703Z,97666.34
2023-08-07T04:44:00.943Z,97659.00
2023-08-07T04:46:31.337Z,97671.31
2023-08-07T04:49:00.829Z,97671.81
2023-08-07T04:51:31.563Z,97664.03
2023-08-07T04:54:00.488Z,97668.28
2023-08-07T04:56:28.714Z,97669.03
2023-08-07T04:58:56.772Z,97672.03
2023-08-07T05:01:24.958Z,97679.50
2023-08-07T05:03:54.728Z,97677.69
2023-08-07T05:06:23.324Z,97682.91
2023-08-07T05:08:51.400Z,97689.66
2023-08-07T05:11:21.509Z,97690.44
2023-08-07T05:13:50.031Z,97686.31
2023-08-07T05:16:20.140Z,97696.41
2023-08-07T05:18:50.738Z,97688.66
2023-08-07T05:21:20.962Z,97688.00
2023-08-07T05:23:49.246Z,97676.97
2023-08-07T05:26:20.457Z,97685.75
2023-08-07T05:28:48.982Z,97706.03
2023-08-07T05:31:17.198Z,97703.66
2023-08-07T05:33:45.289Z,97704.38
2023-08-07T05:36:13.371Z,97710.16
2023-08-07T05:38:42.748Z,97701.66
2023-08-07T05:41:11.287Z,97699.72
2023-08-07T05:43:39.527Z,97692.00
2023-08-07T05:46:07.593Z,97718.19
2023-08-07T05:48:35.895Z,97713.81
2023-08-07T05:51:04.196Z,97708.94
2023-08-07T05:53:32.625Z,97722.28
2023-08-07T05:56:02.063Z,97722.69
2023-08-07T05:58:30.332Z,97712.91
2023-08-07T06:00:58.309Z,97709.78
2023-08-07T06:03:26.562Z,97727.97
2023-08-07T06:05:54.576Z,97730.56
2023-08-07T06:08:22.861Z,97719.91
2023-08-07T06:10:50.936Z,97735.06
2023-08-07T06:13:34.199Z,97736.78
2023-08-07T06:16:04.057Z,97739.41
2023-08-07T06:18:32.217Z,97737.75
2023-08-07T06:21:00.532Z,97740.41
2023-08-07T06:23:28.791Z,97739.38
2023-08-07T06:25:59.863Z,97732.72
2023-08-07T06:28:29.692Z,97740.41
2023-08-07T06:31:04.721Z,97748.88
2023-08-07T06:33:34.415Z,97744.66
2023-08-07T06:36:03.019Z,97742.09
2023-08-07T06:38:31.706Z,97753.59
2023-08-07T06:41:00.165Z,97737.75
2023-08-07T06:43:29.705Z,97752.72
2023-08-07T06:45:59.153Z,97753.81
2023-08-07T06:48:27.244Z,97760.63
2023-08-07T06:50:55.520Z,97762.28
2023-08-07T06:53:23.611Z,97763.19
2023-08-07T06:55:52.908Z,97764.28
2023-08-07T06:58:22.257Z,97769.91
2023-08-07T07:00:52.216Z,97770.41
2023-08-07T07:03:21.429Z,97759.50
2023-08-07T07:05:51.618Z,97762.09
2023-08-07T07:08:19.693Z,97765.06
2023-08-07T07:10:47.846Z,97765.97
2023-08-07T07:13:16.064Z,97781.88
2023-08-07T07:15:44.248Z,97772.69
2023-08-07T07:18:13.983Z,97768.44
2023-08-07T07:20:41.973Z,97779.91
2023-08-07T07:23:09.150Z,97774.34
2023-08-07T07:25:37.461Z,97790.06
2023-08-07T07:28:05.905Z,97789.94
2023-08-07T07:30:34.281Z,97795.97
2023-08-07T07:33:02.322Z,97799.38
2023-08-07T07:35:31.890Z,97803.13
2023-08-07T07:37:59.954Z,97803.63
2023-08-07T07:40:28.224Z,97792.38
2023-08-07T07:42:56.667Z,97811.44
2023-08-07T07:45:24.850Z,97796.28
2023-08-07T07:47:53.346Z,97813.25
2023-08-07T07:50:21.830Z,97814.25
2023-08-07T07:52:51.618Z,97823.91
2023-08-07T07:55:19.700Z,97823.13
2023-08-07T07:57:48.238Z,97818.66
2023-08-07T08:00:17.285Z,97819.94
2023-08-07T08:02:45.369Z,97832.88
2023-08-07T08:05:13.811Z,97833.31
2023-08-07T08:07:42.132Z,97825.03
2023-08-07T08:10:13.487Z,97836.09
2023-08-07T08:12:41.875Z,97838.38
2023-08-07T08:15:11.723Z,97837.03
2023-08-07T08:17:40.258Z,97847.63
2023-08-07T08:20:09.756Z,97850.94
2023-08-07T08:22:37.954Z,97846.41
2023-08-07T08:25:07.823Z,97857.44
2023-08-07T08:27:37.579Z,97856.00
2023-08-07T08:30:06.727Z,97866.31
2023-08-07T08:32:35.208Z,97868.94
2023-08-07T08:35:03.378Z,97857.25
2023-08-07T08:37:31.668Z,97865.50
2023-08-07T08:40:00.839Z,97883.25
2023-08-07T08:42:29.523Z,97873.97
2023-08-07T08:45:00.555Z,97877.41
2023-08-07T08:47:29.669Z,97889.53
2023-08-07T08:50:03.875Z,97881.69
2023-08-07T08:52:33.990Z,97894.81
2023-08-07T08:55:03.079Z,97896.03
2023-08-07T08:57:32.204Z,97896.97
2023-08-07T09:00:02.915Z,97891.81
2023-08-07T09:02:31.179Z,97866.13
2023-08-07T09:04:59.479Z,97890.25
2023-08-07T09:07:29.923Z,97879.41
2023-08-07T09:10:00.049Z,97885.41
2023-08-07T09:12:31.591Z,97903.06
2023-08-07T09:15:04.157Z,97904.88
2023-08-07T09:17:36.156Z,97906.34
2023-08-07T09:20:07.798Z,97909.97
2023-08-07T09:22:36.925Z,97900.56
2023-08-07T09:25:05.197Z,97901.00
2023-08-07T09:27:34.321Z,97903.56
2023-08-07T09:30:04.396Z,97908.97
2023-08-07T09:32:32.889Z,97896.06
2023-08-07T09:35:01.387Z,97912.66
2023-08-07T09:37:29.534Z,97914.22
2023-08-07T09:39:58.375Z,97904.78
2023-08-07T09:42:26.697Z,97915.22
2023-08-07T09:44:55.033Z,97913.47
2023-08-07T09:47:25.074Z,97910.31
2023-08-07T09:49:57.205Z,97916.72
2023-08-07T09:52:29.602Z,97926.06
2023-08-07T09:54:59.417Z,97928.34
2023-08-07T09:57:28.159Z,97928.91
2023-08-07T09:59:56.901Z,97926.75
2023-08-07T10:02:26.607Z,97941.69
2023-08-07T10:04:56.013Z,97951.56
2023-08-07T10:07:25.029Z,97954.69
2023-08-07T10:09:53.298Z,97953.53
2023-08-07T10:12:23.322Z,97933.28
2023-08-07T10:14:53.113Z,97943.81
2023-08-07T10:17:23.928Z,97949.81
2023-08-07T10:19:54.344Z,97961.19
2023-08-07T10:22:25.688Z,97949.38
2023-08-07T10:24:56.070Z,97939.41
2023-08-07T10:27:26.791Z,97968.50
2023-08-07T10:29:56.443Z,97958.97
2023-08-07T10:32:26.590Z,97962.44
2023-08-07T10:34:57.047Z,97962.44
2023-08-07T10:37:44.636Z,97971.41
2023-08-07T10:40:14.657Z,97972.72
2023-08-07T10:43:00.083Z,97966.44
2023-08-07T10:45:30.029Z,97954.97
2023-08-07T10:48:05.514Z,97960.97
2023-08-07T10:50:36.526Z,97960.84
2023-08-07T10:53:05.500Z,97947.59
2023-08-07T10:55:45.060Z,97956.03
2023-08-07T10:58:24.904Z,97952.78
2023-08-07T11:00:54.198Z,97954.00
2023-08-07T11:03:28.809Z,97969.13
2023-08-07T11:06:00.602Z,97971.59
2023-08-07T11:08:30.901Z,97963.84
2023-08-07T11:11:06.461Z,97961.81
2023-08-07T11:13:35.367Z,97962.16
2023-08-07T11:16:06.800Z,97973.22
2023-08-07T11:18:36.912Z,97972.06
2023-08-07T11:21:06.959Z,97970.84
2023-08-07T11:23:36.796Z,97960.88
2023-08-07T11:26:05.267Z,97976.00
2023-08-07T11:28:34.056Z,97975.25
2023-08-07T11:31:02.995Z,97972.13
2023-08-07T11:33:32.027Z,97968.56
2023-08-07T11:36:00.320Z,97974.53
2023-08-07T11:38:34.619Z,97962.09
2023-08-07T11:41:04.675Z,97974.28
2023-08-07T11:43:35.010Z,97973.97
2023-08-07T11:46:05.940Z,97971.25
2023-08-07T11:48:35.555Z,97971.81
2023-08-07T11:51:04.525Z,97981.97
2023-08-07T11:53:36.962Z,97968.81
2023-08-07T11:56:07.025Z,97999.56
2023-08-07T11:58:37.333Z,97978.72
2023-08-07T12:01:11.698Z,97982.88
2023-08-07T12:03:41.174Z,97991.81
2023-08-07T12:06:10.427Z,97993.81
2023-08-07T12:08:41.163Z,97999.84
2023-08-07T12:11:11.386Z,97999.25
2023-08-07T12:13:40.792Z,97985.94
2023-08-07T12:16:09.644Z,97989.84
2023-08-07T12:18:40.026Z,97996.66
2023-08-07T12:21:10.188Z,97991.84
2023-08-07T12:23:41.760Z,98005.81
2023-08-07T12:26:11.103Z,98000.97
2023-08-07T12:28:39.354Z,97994.69
2023-08-07T12:31:08.367Z,97999.44
2023-08-07T12:33:36.724Z,97995.09
2023-08-07T12:36:05.393Z,98005.91
2023-08-07T12:38:33.541Z,97998.31
2023-08-07T12:41:04.448Z,98008.16
2023-08-07T12:43:32.681Z,98013.13
2023-08-07T12:48:33.929Z,98016.00
2023-08-07T12:51:02.387Z,98020.28
2023-08-07T12:53:32.983Z,98030.00
2023-08-07T12:56:04.169Z,98034.50
2023-08-07T12:58:32.164Z,98023.41
2023-08-07T13:01:00.645Z,98033.19
2023-08-07T13:03:29.073Z,98027.66
2023-08-07T13:05:57.088Z,98046.00
2023-08-07T13:08:25.339Z,98053.28
2023-08-07T13:10:53.627Z,98046.19
2023-08-07T13:13:23.254Z,98057.13
2023-08-07T13:15:52.805Z,98054.69
2023-08-07T13:18:22.710Z,98064.69
2023-08-07T13:20:51.615Z,98058.47
2023-08-07T13:23:19.981Z,98072.69
2023-08-07T13:25:48.216Z,98051.53
2023-08-07T13:28:16.476Z,98075.28
2023-08-07T13:30:46.170Z,98076.84
2023-08-07T13:33:16.469Z,98074.81
2023-08-07T13:35:46.122Z,98074.03
2023-08-07T13:38:16.197Z,98073.03
2023-08-07T13:40:45.708Z,98078.88
2023-08-07T13:43:15.122Z,98074.47
2023-08-07T13:45:43.374Z,98071.78
2023-08-07T13:48:13.041Z,98071.88
2023-08-07T13:50:42.394Z,98081.19
2023-08-07T13:53:15.045Z,98080.59
2023-08-07T13:55:45.066Z,98076.44
2023-08-07T13:58:16.763Z,98075.16
2023-08-07T14:00:45.084Z,98076.28
2023-08-07T14:03:15.555Z,98090.34
2023-08-07T14:05:44.141Z,98085.00
2023-08-07T14:08:12.440Z,98085.97
2023-08-07T14:10:42.503Z,98090.25
2023-08-07T14:13:12.833Z,98094.88
2023-08-07T14:15:41.758Z,98105.44
2023-08-07T14:18:09.975Z,98108.94
2023-08-07T14:20:52.156Z,98087.28
2023-08-07T14:23:30.659Z,98102.97
2023-08-07T14:26:00.559Z,98100.03
2023-08-07T14:28:29.962Z,98117.94
2023-08-07T14:31:01.604Z,98125.56
2023-08-07T14:33:30.880Z,98100.22
2023-08-07T14:36:01.593Z,98130.59
2023-08-07T14:38:30.123Z,98115.09
2023-08-07T14:41:00.627Z,98119.59
2023-08-07T14:43:32.587Z,98113.38
2023-08-07T14:46:00.934Z,98128.78
2023-08-07T14:48:31.965Z,98124.41
2023-08-07T14:51:02.653Z,98119.44
2023-08-07T14:53:30.863Z,98121.22
2023-08-07T14:55:59.145Z,98116.84
2023-08-07T14:58:27.299Z,98116.66
2023-08-07T15:00:56.637Z,98120.78
2023-08-07T15:03:24.864Z,98128.94
2023-08-07T15:05:53.547Z,98119.09
2023-08-07T15:08:23.674Z,98126.53
2023-08-07T15:10:54.592Z,98122.88
2023-08-07T15:13:23.315Z,98128.38
2023-08-07T15:15:52.914Z,98119.00
2023-08-07T15:18:21.164Z,98124.63
2023-08-07T15:20:50.724Z,98126.25
2023-08-07T15:23:19.033Z,98113.47
2023-08-07T15:25:49.303Z,98116.75
2023-08-07T15:28:17.399Z,98120.63
2023-08-07T15:30:50.842Z,98121.06
2023-08-07T15:33:20.839Z,98122.66
2023-08-07T15:35:52.969Z,98128.06
2023-08-07T15:38:21.556Z,98138.41
2023-08-07T15:40:51.252Z,98132.28
2023-08-07T15:43:19.794Z,98129.84
2023-08-07T15:45:49.309Z,98119.25
2023-08-07T15:48:19.144Z,98119.38
2023-08-07T15:50:47.508Z,98119.97
2023-08-07T15:53:15.886Z,98118.63
2023-08-07T15:55:43.947Z,98109.81
2023-08-07T15:58:13.646Z,98115.56
2023-08-07T16:00:41.876Z,98098.25
2023-08-07T16:03:11.439Z,98107.94
2023-08-07T16:05:40.741Z,98106.41
2023-08-07T16:08:09.840Z,98109.81
2023-08-07T16:10:39.942Z,98094.00
2023-08-07T16:13:08.464Z,98105.75
2023-08-07T16:15:39.257Z,98102.66
2023-08-07T16:18:07.859Z,98095.09
2023-08-07T16:20:36.533Z,98110.16
2023-08-07T16:23:04.938Z,98099.47
2023-08-07T16:25:33.793Z,98086.25
2023-08-07T16:28:03.368Z,98100.69
2023-08-07T16:30:31.610Z,98098.81
2023-08-07T16:33:01.387Z,98092.56
2023-08-07T16:35:29.975Z,98101.88
2023-08-07T16:37:58.140Z,98102.03
2023-08-07T16:40:26.696Z,98089.88
2023-08-07T16:42:55.279Z,98080.63
2023-08-07T16:45:24.828Z,98079.09
2023-08-07T16:47:53.096Z,98077.22
2023-08-07T16:50:22.959Z,98078.41
2023-08-07T16:52:51.261Z,98082.44
2023-08-07T16:55:19.602Z,98086.97
2023-08-07T16:57:48.131Z,98085.91
2023-08-07T17:00:16.979Z,98092.78
2023-08-07T17:02:47.198Z,98089.78
2023-08-07T17:05:15.503Z,98105.75
2023-08-07T17:07:44.872Z,98103.66
2023-08-07T17:10:14.567Z,98090.22
2023-08-07T17:12:43.933Z,98105.41
2023-08-07T17:15:12.566Z,98106.06
2023-08-07T17:17:40.984Z,98105.69
2023-08-07T17:20:09.823Z,98105.84
2023-08-07T17:22:38.935Z,98109.34
2023-08-07T17:25:09.665Z,98104.44
2023-08-07T17:27:38.013Z,98102.28
2023-08-07T17:30:07.468Z,98108.78
2023-08-07T17:32:38.149Z,98096.69
2023-08-07T17:35:07.611Z,98095.09
2023-08-07T17:37:35.844Z,98107.75
2023-08-07T17:40:04.548Z,98108.34
2023-08-07T17:42:34.146Z,98113.81
2023-08-07T17:45:03.417Z,98107.00
2023-08-07T17:47:31.993Z,98118.09
2023-08-07T17:50:00.599Z,98120.25
2023-08-07T17:52:31.116Z,98126.38
2023-08-07T17:54:59.286Z,98124.81
2023-08-07T17:57:27.488Z,98121.66
2023-08-07T17:59:57.123Z,98124.41
2023-08-07T18:02:26.801Z,98119.13
2023-08-07T18:04:55.303Z,98118.66
2023-08-07T18:07:23.960Z,98123.06
2023-08-07T18:09:52.126Z,98121.13
2023-08-07T18:12:21.170Z,98127.50
2023-08-07T18:14:49.296Z,98118.59
2023-08-07T18:17:18.789Z,98126.88
2023-08-07T18:19:47.445Z,98122.78
2023-08-07T18:22:15.788Z,98124.53
2023-08-07T18:24:44.967Z,98124.31
2023-08-07T18:27:14.265Z,98125.41
2023-08-07T18:29:43.417Z,98136.72
2023-08-07T18:32:11.786Z,98132.59
2023-08-07T18:34:41.510Z,98123.09
2023-08-07T18:37:09.573Z,98140.13
2023-08-07T18:39:37.702Z,98145.22
2023-08-07T18:42:06.326Z,98140.41
2023-08-07T18:44:34.916Z,98154.41
2023-08-07T18:47:03.652Z,98155.69
2023-08-07T18:49:32.567Z,98150.13
2023-08-07T18:52:05.232Z,98162.69
2023-08-07T18:54:33.545Z,98164.47
2023-08-07T18:57:03.415Z,98170.72
2023-08-07T18:59:34.103Z,98166.84
2023-08-07T19:02:02.207Z,98163.56
2023-08-07T19:04:30.996Z,98171.38
2023-08-07T19:06:59.896Z,98170.53
2023-08-07T19:09:30.477Z,98175.00
2023-08-07T19:11:58.908Z,98172.16
2023-08-07T19:14:27.519Z,98178.81
2023-08-07T19:16:55.730Z,98171.16
2023-08-07T19:19:24.253Z,98188.81
2023-08-07T19:21:52.389Z,98192.97
2023-08-07T19:24:21.073Z,98183.41
2023-08-07T19:26:50.633Z,98176.66
2023-08-07T19:29:19.300Z,98183.41
2023-08-07T19:31:47.628Z,98181.84
2023-08-07T19:34:17.574Z,98183.75
2023-08-07T19:36:46.058Z,98186.47
2023-08-07T19:39:14.718Z,98179.09
2023-08-07T19:41:42.896Z,98191.34
2023-08-07T19:44:12.392Z,98192.66
2023-08-07T19:46:40.609Z,98187.72
2023-08-07T19:49:08.778Z,98187.44
2023-08-07T19:51:37.397Z,98188.28
2023-08-07T19:54:05.916Z,98184.94
2023-08-07T19:56:36.836Z,98200.66
2023-08-07T19:59:06.220Z,98190.53
2023-08-07T20:01:36.145Z,98189.59
2023-08-07T20:04:04.737Z,98192.56
2023-08-07T20:06:33.526Z,98185.81
2023-08-07T20:09:02.538Z,98193.50
2023-08-07T20:11:38.242Z,98179.28
2023-08-07T20:14:06.622Z,98195.91
2023-08-07T20:16:36.688Z,98188.84
2023-08-07T20:19:04.888Z,98185.47
2023-08-07T20:21:33.657Z,98188.97
2023-08-07T20:24:01.742Z,98187.03
2023-08-07T20:26:34.032Z,98183.47
2023-08-07T20:29:02.402Z,98192.72
2023-08-07T20:31:30.623Z,98191.78
2023-08-07T20:34:00.253Z,98234.91
2023-08-07T20:36:29.799Z,98235.38
2023-08-07T20:38:58.670Z,98218.63
2023-08-07T20:41:27.279Z,98205.19
2023-08-07T20:43:57.280Z,98218.00
2023-08-07T20:46:25.563Z,98215.75
2023-08-07T20:48:53.929Z,98219.69
2023-08-07T20:51:23.875Z,98210.88
2023-08-07T20:53:52.353Z,98190.06
2023-08-07T20:56:20.952Z,98192.97
2023-08-07T20:58:49.046Z,98198.13
2023-08-07T21:01:17.227Z,98196.94
2023-08-07T21:03:45.463Z,98184.66
2023-08-07T21:06:13.648Z,98187.19
2023-08-07T21:08:43.069Z,98173.81
2023-08-07T21:11:11.129Z,98191.06
2023-08-07T21:13:39.927Z,98183.88
2023-08-07T21:16:08.834Z,98183.94
2023-08-07T21:18:36.903Z,98188.13
2023-08-07T21:21:05.100Z,98194.91
2023-08-07T21:23:35.690Z,98198.72
2023-08-07T21:26:05.560Z,98201.69
2023-08-07T21:28:33.789Z,98193.63
2023-08-07T21:31:02.118Z,98193.00
2023-08-07T21:33:30.419Z,98193.22
2023-08-07T21:35:59.771Z,98192.34
2023-08-07T21:38:28.385Z,98192.47
2023-08-07T21:40:56.536Z,98184.88
2023-08-07T21:43:26.659Z,98198.91
2023-08-07T21:45:54.655Z,98187.88
2023-08-07T21:48:22.712Z,98188.03
2023-08-07T21:50:51.280Z,98191.63
2023-08-07T21:53:19.332Z,98189.97
2023-08-07T21:55:47.806Z,98182.66
2023-08-07T21:58:16.371Z,98190.41
2023-08-07T22:00:48.510Z,98199.44
2023-08-07T22:03:16.726Z,98199.53
2023-08-07T22:05:44.896Z,98200.59
2023-08-07T22:08:12.954Z,98197.31
2023-08-07T22:10:41.370Z,98197.50
2023-08-07T22:13:09.441Z,98199.41
2023-08-07T22:15:37.598Z,98190.25
2023-08-07T22:18:07.462Z,98185.28
2023-08-07T22:20:35.619Z,98185.38
2023-08-07T22:23:03.743Z,98175.47
2023-08-07T22:25:32.150Z,98192.25
2023-08-07T22:28:00.379Z,98186.53
2023-08-07T22:30:28.635Z,98194.25
2023-08-07T22:32:56.961Z,98195.94
2023-08-07T22:35:26.992Z,98181.78
2023-08-07T22:37:55.144Z,98192.91
2023-08-07T22:40:23.491Z,98185.25
2023-08-07T22:42:51.592Z,98186.34
2023-08-07T22:45:19.862Z,98194.63
2023-08-07T22:47:48.507Z,98189.66
2023-08-07T22:50:16.862Z,98193.03
2023-08-07T22:52:46.433Z,98187.09
2023-08-07T22:55:14.676Z,98183.59
2023-08-07T22:57:42.789Z,98180.22
2023-08-07T23:00:13.498Z,98188.78
2023-08-07T23:02:41.944Z,98182.03
2023-08-07T23:05:10.223Z,98189.66
2023-08-07T23:07:39.689Z,98183.56
2023-08-07T23:10:10.244Z,98184.38
2023-08-07T23:12:38.258Z,98177.44
2023-08-07T23:15:07.209Z,98177.38
2023-08-07T23:17:35.782Z,98168.09
2023-08-07T23:20:05.315Z,98174.09
2023-08-07T23:22:33.392Z,98172.31
2023-08-07T23:25:03.902Z,98169.75
2023-08-07T23:27:33.537Z,98169.91
2023-08-07T23:30:01.793Z,98162.84
2023-08-07T23:32:29.896Z,98166.09
2023-08-07T23:34:58.084Z,98166.84
2023-08-07T23:37:26.308Z,98162.41
2023-08-07T23:39:54.829Z,98160.59
2023-08-07T23:42:23.199Z,98163.84
2023-08-07T23:44:52.809Z,98157.09
2023-08-07T23:47:21.043Z,98154.59
2023-08-07T23:49:49.210Z,98156.16
2023-08-07T23:52:17.466Z,98161.25
2023-08-07T23:54:45.776Z,98141.50
2023-08-07T23:57:14.013Z,98152.75
2023-08-07T23:59:42.120Z,98132.47
